Time;durP1;ratioP1;P1;durP2;ratioP2;P2;SDS_P1;SDS_P2;PMS_P1;PMS_P2;Temp;Humidity;BMP_temperature;BMP_pressure;BME280_temperature;BME280_humidity;BME280_pressure;Samples;Min_cycle;Max_cycle;Signal;HPM_P1;HPM_P2
2023/09/09 00:00:35;;;;;;;9.00;3.60;;;;;;;14.97;53.58;99674.55;106809;1263;72747;-41
2023/09/09 00:03:04;;;;;;;6.00;3.70;;;;;;;14.96;53.71;99678.70;106821;1263;60091;-40
2023/09/09 00:05:33;;;;;;;7.30;3.70;;;;;;;14.95;53.72;99676.27;107047;1264;60047;-40
2023/09/09 00:08:00;;;;;;;6.10;3.10;;;;;;;14.92;53.77;99674.52;107054;1265;73051;-40
2023/09/09 00:10:29;;;;;;;8.90;3.50;;;;;;;14.90;54.02;99676.86;107008;1260;67924;-40
2023/09/09 00:12:57;;;;;;;8.00;4.10;;;;;;;14.88;54.15;99672.48;107197;1263;71402;-40
2023/09/09 00:15:25;;;;;;;6.40;3.60;;;;;;;14.85;54.15;99673.40;107258;1262;60074;-40
2023/09/09 00:17:53;;;;;;;5.80;3.70;;;;;;;14.82;54.28;99669.77;107261;1257;59490;-41
2023/09/09 00:20:38;;;;;;;5.10;3.40;;;;;;;14.81;54.46;99668.15;107274;1258;73043;-41
2023/09/09 00:23:09;;;;;;;6.00;3.50;;;;;;;14.77;54.66;99667.41;107273;1260;67631;-41
2023/09/09 00:25:37;;;;;;;7.70;4.50;;;;;;;14.72;54.88;99665.50;107264;1257;71965;-41
2023/09/09 00:28:05;;;;;;;6.30;3.50;;;;;;;14.69;55.05;99662.76;107275;1257;59589;-41
2023/09/09 00:30:33;;;;;;;6.70;3.90;;;;;;;14.68;55.17;99662.27;107338;1258;60015;-41
2023/09/09 00:33:02;;;;;;;9.00;4.10;;;;;;;14.67;55.10;99660.39;107273;1261;73042;-41
2023/09/09 00:35:32;;;;;;;6.60;4.40;;;;;;;14.67;55.16;99657.81;107298;1262;66383;-41
2023/09/09 00:38:00;;;;;;;7.50;4.10;;;;;;;14.67;55.17;99653.91;107286;1257;72664;-41
2023/09/09 00:40:28;;;;;;;6.30;4.20;;;;;;;14.66;55.03;99653.08;107201;1261;60546;-41
2023/09/09 00:42:56;;;;;;;10.40;4.70;;;;;;;14.65;55.06;99655.16;107259;1258;59999;-42
2023/09/09 00:45:25;;;;;;;9.60;4.80;;;;;;;14.64;55.16;99651.80;107280;1261;73071;-41
2023/09/09 00:47:53;;;;;;;11.20;4.90;;;;;;;14.60;55.21;99650.39;107164;1257;66604;-41
2023/09/09 00:50:22;;;;;;;10.30;4.90;;;;;;;14.59;55.40;99651.38;107093;1264;72761;-41
2023/09/09 00:52:49;;;;;;;9.80;4.80;;;;;;;14.56;55.66;99645.28;107268;1260;59497;-41
2023/09/09 00:55:17;;;;;;;8.60;4.30;;;;;;;14.47;55.79;99638.58;107237;1262;60036;-41
2023/09/09 00:57:45;;;;;;;7.70;4.90;;;;;;;14.37;56.04;99644.95;106909;1257;71889;-42
2023/09/09 01:00:13;;;;;;;8.00;4.10;;;;;;;14.33;56.38;99644.91;107260;1262;67925;-42
2023/09/09 01:02:40;;;;;;;5.90;4.00;;;;;;;14.31;56.35;99645.61;107280;1260;72696;-41
2023/09/09 01:05:10;;;;;;;8.90;4.80;;;;;;;14.29;56.41;99652.28;107248;1260;60071;-41
2023/09/09 01:07:56;;;;;;;11.70;4.50;;;;;;;14.26;56.61;99652.97;107272;1260;60074;-42
2023/09/09 01:10:26;;;;;;;7.20;4.00;;;;;;;14.24;56.83;99650.29;107258;1256;72105;-41
2023/09/09 01:12:54;;;;;;;8.90;4.20;;;;;;;14.22;56.94;99650.59;107234;1261;66384;-41
2023/09/09 01:15:21;;;;;;;7.30;4.30;;;;;;;14.19;57.25;99647.13;107253;1261;72696;-41
2023/09/09 01:17:49;;;;;;;7.80;4.60;;;;;;;14.16;57.37;99650.69;107264;1261;60085;-41
2023/09/09 01:20:19;;;;;;;7.50;4.30;;;;;;;14.14;57.51;99649.73;107259;1260;59621;-41
2023/09/09 01:22:49;;;;;;;10.60;3.70;;;;;;;14.12;57.54;99650.10;107277;1257;73096;-41
2023/09/09 01:25:17;;;;;;;7.40;4.10;;;;;;;14.09;57.61;99645.33;107179;1257;67586;-41
2023/09/09 01:27:45;;;;;;;7.80;4.00;;;;;;;14.04;57.59;99645.74;107266;1257;72786;-41
2023/09/09 01:30:13;;;;;;;5.90;4.10;;;;;;;13.98;57.99;99640.01;107274;1258;59643;-41
2023/09/09 01:32:40;;;;;;;6.60;4.30;;;;;;;13.93;57.99;99636.14;107242;1257;59686;-41
2023/09/09 01:35:08;;;;;;;10.00;4.50;;;;;;;13.87;58.06;99642.31;107169;1263;71853;-41
2023/09/09 01:37:35;;;;;;;8.20;4.30;;;;;;;13.84;57.99;99639.02;107211;1261;67736;-41
2023/09/09 01:40:12;;;;;;;8.70;4.60;;;;;;;13.82;58.03;99639.14;107021;1257;72801;-41
2023/09/09 01:42:40;;;;;;;6.20;3.80;;;;;;;13.80;58.29;99642.39;107258;1260;60021;-41
2023/09/09 01:45:09;;;;;;;9.30;2.80;;;;;;;13.79;58.44;99643.86;107267;1257;59605;-41
2023/09/09 01:47:37;;;;;;;12.50;3.90;;;;;;;13.77;58.66;99647.89;107246;1257;73021;-41
2023/09/09 01:50:05;;;;;;;7.80;4.40;;;;;;;13.76;59.05;99643.98;107204;1261;67676;-41
2023/09/09 01:52:33;;;;;;;13.10;6.20;;;;;;;13.75;59.23;99643.51;107250;1260;72800;-41
2023/09/09 01:55:01;;;;;;;9.30;5.60;;;;;;;13.71;59.16;99645.64;107234;1260;60107;-41
2023/09/09 01:57:29;;;;;;;11.50;6.40;;;;;;;13.68;59.15;99642.81;107180;1258;59529;-41
2023/09/09 01:59:58;;;;;;;10.30;5.70;;;;;;;13.68;58.99;99647.40;107247;1261;71775;-41
2023/09/09 02:02:25;;;;;;;10.50;6.20;;;;;;;13.67;59.03;99644.90;107178;1257;67524;-41
2023/09/09 02:04:53;;;;;;;10.70;6.30;;;;;;;13.65;59.21;99646.51;107205;1257;72753;-41
2023/09/09 02:07:21;;;;;;;12.20;6.00;;;;;;;13.64;59.33;99646.35;107233;1256;60024;-41
2023/09/09 02:09:48;;;;;;;9.60;5.90;;;;;;;13.63;59.63;99650.55;107158;1262;59545;-41
2023/09/09 02:12:16;;;;;;;7.50;4.80;;;;;;;13.63;59.86;99650.54;107224;1257;73047;-41
2023/09/09 02:14:43;;;;;;;8.30;4.50;;;;;;;13.62;59.92;99652.63;107179;1257;67588;-41
2023/09/09 02:17:12;;;;;;;6.40;3.70;;;;;;;13.62;59.86;99650.38;107159;1258;72765;-41
2023/09/09 02:19:40;;;;;;;7.00;4.00;;;;;;;13.67;59.90;99648.95;107253;1260;60072;-41
2023/09/09 02:22:08;;;;;;;8.50;4.10;;;;;;;13.69;60.04;99647.04;107264;1257;60495;-41
2023/09/09 02:24:35;;;;;;;6.90;4.10;;;;;;;13.70;60.05;99648.83;107214;1257;73025;-41
2023/09/09 02:27:03;;;;;;;11.10;4.70;;;;;;;13.71;59.90;99646.34;107235;1257;67757;-41
2023/09/09 02:29:31;;;;;;;8.30;4.60;;;;;;;13.72;60.02;99649.30;107278;1260;72816;-41
2023/09/09 02:31:59;;;;;;;8.80;4.50;;;;;;;13.72;60.05;99649.55;107043;1257;60074;-41
2023/09/09 02:34:26;;;;;;;6.90;4.20;;;;;;;13.71;60.08;99649.21;107188;1256;60045;-41
2023/09/09 02:37:12;;;;;;;6.80;4.30;;;;;;;13.69;60.18;99650.15;107504;1254;73016;-41
2023/09/09 02:39:41;;;;;;;8.00;4.10;;;;;;;13.67;60.12;99651.44;107482;1254;67255;-41
2023/09/09 02:42:14;;;;;;;10.10;4.20;;;;;;;13.63;60.01;99651.16;107675;1254;71362;-41
2023/09/09 02:44:42;;;;;;;8.40;4.80;;;;;;;13.58;60.11;99655.39;107525;1259;60062;-42
2023/09/09 02:47:12;;;;;;;7.20;4.20;;;;;;;13.54;60.30;99662.42;107583;1253;60457;-41
2023/09/09 02:49:40;;;;;;;9.90;4.20;;;;;;;13.49;60.67;99666.48;107468;1254;73077;-41
2023/09/09 02:52:08;;;;;;;7.20;3.80;;;;;;;13.42;60.81;99674.27;107489;1257;67576;-41
2023/09/09 02:54:37;;;;;;;8.50;4.50;;;;;;;13.37;60.95;99677.54;107485;1254;72661;-42
2023/09/09 02:57:05;;;;;;;9.10;4.00;;;;;;;13.33;61.02;99672.83;107657;1253;60415;-42
2023/09/09 02:59:35;;;;;;;6.10;3.70;;;;;;;13.35;61.04;99670.30;107619;1257;60332;-42
2023/09/09 03:02:03;;;;;;;7.00;3.90;;;;;;;13.40;60.93;99674.23;107492;1252;72677;-42
2023/09/09 03:04:31;;;;;;;7.40;4.20;;;;;;;13.42;60.81;99676.58;107504;1253;66414;-42
2023/09/09 03:06:59;;;;;;;9.60;4.20;;;;;;;13.42;60.83;99679.25;107646;1253;73024;-42
2023/09/09 03:09:26;;;;;;;7.00;4.00;;;;;;;13.43;60.90;99680.12;107490;1253;60572;-41
2023/09/09 03:11:55;;;;;;;10.60;4.20;;;;;;;13.43;60.79;99677.94;107537;1257;60401;-42
2023/09/09 03:14:24;;;;;;;7.60;3.90;;;;;;;13.45;61.00;99679.84;107536;1254;72591;-42
2023/09/09 03:16:52;;;;;;;11.00;4.20;;;;;;;13.45;61.07;99681.94;107518;1253;67608;-42
2023/09/09 03:19:20;;;;;;;7.70;4.40;;;;;;;13.47;61.15;99680.31;107695;1254;70445;-42
2023/09/09 03:21:47;;;;;;;7.30;4.10;;;;;;;13.48;61.11;99683.14;107477;1253;60569;-42
2023/09/09 03:24:15;;;;;;;8.10;4.10;;;;;;;13.48;61.18;99681.98;107470;1252;60433;-42
2023/09/09 03:26:43;;;;;;;11.40;4.40;;;;;;;13.46;61.23;99683.88;107494;1253;73887;-42
2023/09/09 03:29:10;;;;;;;9.20;4.40;;;;;;;13.44;61.40;99691.80;107451;1254;66473;-42
2023/09/09 03:31:38;;;;;;;11.30;4.50;;;;;;;13.43;61.31;99691.16;107479;1254;72732;-42
2023/09/09 03:34:05;;;;;;;6.20;4.20;;;;;;;13.40;61.30;99689.19;107461;1254;60237;-42
2023/09/09 03:36:36;;;;;;;8.50;4.00;;;;;;;13.37;61.28;99694.27;107463;1254;60191;-42
2023/09/09 03:39:04;;;;;;;6.30;4.30;;;;;;;13.36;61.31;99698.23;107518;1254;72158;-42
2023/09/09 03:41:32;;;;;;;6.40;4.30;;;;;;;13.39;61.27;99694.69;107608;1252;66730;-42
2023/09/09 03:44:00;;;;;;;7.90;4.20;;;;;;;13.38;61.26;99693.91;107644;1253;71451;-42
2023/09/09 03:46:27;;;;;;;7.80;3.70;;;;;;;13.38;61.44;99691.18;107516;1254;60416;-42
2023/09/09 03:48:56;;;;;;;8.50;4.50;;;;;;;13.38;61.47;99691.50;107553;1253;59244;-42
2023/09/09 03:51:24;;;;;;;8.60;4.20;;;;;;;13.38;61.50;99694.36;107550;1257;72566;-42
2023/09/09 03:53:52;;;;;;;8.70;4.20;;;;;;;13.36;61.54;99696.60;107494;1253;66650;-41
2023/09/09 03:56:20;;;;;;;7.10;4.00;;;;;;;13.35;61.53;99698.92;107636;1253;71382;-41
2023/09/09 03:58:47;;;;;;;8.40;3.90;;;;;;;13.34;61.85;99696.35;107512;1253;60466;-42
2023/09/09 04:01:15;;;;;;;7.80;4.30;;;;;;;13.35;62.06;99698.46;107507;1253;60343;-42
2023/09/09 04:03:43;;;;;;;11.00;4.90;;;;;;;13.36;62.04;99698.23;107453;1254;73839;-42
2023/09/09 04:06:13;;;;;;;7.80;4.20;;;;;;;13.36;62.20;99694.50;107507;1252;66282;-41
2023/09/09 04:08:41;;;;;;;11.60;4.30;;;;;;;13.38;62.19;99698.27;107479;1253;72758;-42
2023/09/09 04:11:11;;;;;;;7.80;4.00;;;;;;;13.43;62.25;99698.71;107630;1253;60085;-42
2023/09/09 04:13:40;;;;;;;9.60;4.80;;;;;;;13.45;62.32;99697.81;107510;1253;60451;-42
2023/09/09 04:16:09;;;;;;;7.10;4.30;;;;;;;13.49;62.38;99700.73;107495;1254;73857;-42
2023/09/09 04:18:36;;;;;;;11.60;5.00;;;;;;;13.55;62.36;99698.08;107669;1253;67887;-41
2023/09/09 04:21:15;;;;;;;9.20;5.30;;;;;;;13.59;62.23;99701.00;107459;1257;71410;-42
2023/09/09 04:23:43;;;;;;;9.90;5.40;;;;;;;13.63;62.17;99707.98;107516;1257;60027;-41
2023/09/09 04:26:11;;;;;;;13.10;5.40;;;;;;;13.61;62.24;99704.45;107501;1254;59758;-42
2023/09/09 04:28:39;;;;;;;12.70;5.00;;;;;;;13.69;62.30;99717.17;107486;1253;74331;-42
2023/09/09 04:31:09;;;;;;;10.30;5.00;;;;;;;13.70;62.40;99721.46;107508;1253;67871;-42
2023/09/09 04:33:40;;;;;;;7.60;3.40;;;;;;;13.71;62.25;99724.66;107464;1254;70431;-39
2023/09/09 04:36:08;;;;;;;7.10;3.90;;;;;;;13.74;62.38;99725.48;107461;1259;60489;-40
2023/09/09 04:38:36;;;;;;;13.00;3.70;;;;;;;13.84;62.42;99727.07;107527;1253;60786;-41
2023/09/09 04:41:08;;;;;;;5.70;3.50;;;;;;;13.95;62.46;99730.23;107537;1254;72687;-41
2023/09/09 04:43:36;;;;;;;5.70;3.60;;;;;;;14.03;62.60;99729.77;107517;1253;66773;-40
2023/09/09 04:46:04;;;;;;;6.20;3.60;;;;;;;14.11;62.40;99727.69;107715;1253;72809;-41
2023/09/09 04:48:32;;;;;;;9.10;3.60;;;;;;;14.20;62.26;99725.59;107645;1253;60566;-40
2023/09/09 04:51:00;;;;;;;7.30;3.70;;;;;;;14.28;62.23;99725.04;107520;1253;60291;-40
2023/09/09 04:53:27;;;;;;;8.40;3.60;;;;;;;14.35;62.33;99725.14;107499;1253;73808;-40
2023/09/09 04:55:56;;;;;;;8.10;4.20;;;;;;;14.40;62.29;99730.48;107738;1253;66604;-40
2023/09/09 04:58:25;;;;;;;8.40;3.20;;;;;;;14.44;62.47;99732.01;107508;1254;70401;-41
2023/09/09 05:00:53;;;;;;;5.00;3.00;;;;;;;14.51;62.43;99728.96;107520;1254;60947;-40
2023/09/09 05:03:20;;;;;;;11.50;3.50;;;;;;;14.62;62.59;99731.70;107509;1253;60718;-41
2023/09/09 05:05:48;;;;;;;8.60;3.10;;;;;;;14.69;62.66;99731.36;107469;1252;72605;-41
2023/09/09 05:08:15;;;;;;;8.40;3.40;;;;;;;14.75;62.66;99730.33;107688;1257;67584;-41
2023/09/09 05:10:44;;;;;;;6.00;3.20;;;;;;;14.82;62.60;99722.96;107439;1259;72673;-40
2023/09/09 05:13:12;;;;;;;7.90;3.90;;;;;;;14.89;62.54;99722.40;107562;1253;60396;-41
2023/09/09 05:15:39;;;;;;;7.80;3.00;;;;;;;14.96;62.38;99722.84;107491;1254;60301;-40
2023/09/09 05:18:07;;;;;;;6.40;3.30;;;;;;;15.01;62.55;99723.35;107486;1254;73833;-41
2023/09/09 05:20:35;;;;;;;8.80;2.70;;;;;;;15.08;62.95;99723.23;107636;1253;66314;-41
2023/09/09 05:23:03;;;;;;;4.50;2.70;;;;;;;15.17;62.65;99726.11;107606;1254;72007;-40
2023/09/09 05:25:30;;;;;;;10.00;3.00;;;;;;;15.32;62.53;99732.52;107491;1253;60430;-40
2023/09/09 05:27:58;;;;;;;5.50;2.80;;;;;;;15.43;62.45;99731.40;107505;1258;60017;-40
2023/09/09 05:30:26;;;;;;;6.80;2.90;;;;;;;15.53;62.28;99733.27;107489;1253;72912;-41
2023/09/09 05:32:53;;;;;;;8.40;3.40;;;;;;;15.65;62.02;99738.09;107491;1258;66784;-41
2023/09/09 05:35:21;;;;;;;4.40;3.10;;;;;;;15.76;61.78;99740.55;107461;1256;72690;-41
2023/09/09 05:37:49;;;;;;;5.10;2.80;;;;;;;15.86;61.48;99744.66;107648;1254;60559;-41
2023/09/09 05:40:17;;;;;;;5.80;3.10;;;;;;;15.94;61.03;99748.67;107620;1253;60390;-41
2023/09/09 05:42:44;;;;;;;5.80;3.10;;;;;;;16.03;61.08;99749.09;107472;1253;72468;-40
2023/09/09 05:45:14;;;;;;;5.90;3.00;;;;;;;16.11;60.94;99755.20;107474;1253;66332;-40
2023/09/09 05:47:44;;;;;;;3.40;2.60;;;;;;;16.17;61.14;99751.95;107496;1253;72475;-40
2023/09/09 05:50:12;;;;;;;4.60;2.90;;;;;;;16.23;60.76;99759.07;107471;1254;60348;-40
2023/09/09 05:52:41;;;;;;;5.40;2.80;;;;;;;16.29;60.87;99764.95;107476;1254;60514;-40
2023/09/09 05:55:10;;;;;;;6.10;3.00;;;;;;;16.34;60.78;99762.38;107637;1253;72612;-41
2023/09/09 05:57:39;;;;;;;6.90;2.50;;;;;;;16.40;60.78;99765.52;107482;1254;67903;-41
2023/09/09 06:00:09;;;;;;;7.00;3.00;;;;;;;16.46;60.86;99766.31;107644;1252;72352;-41
2023/09/09 06:02:41;;;;;;;5.80;2.80;;;;;;;16.54;60.15;99767.96;107498;1254;60460;-40
2023/09/09 06:05:09;;;;;;;3.80;2.10;;;;;;;16.61;60.06;99776.99;107732;1252;60284;-42
2023/09/09 06:07:37;;;;;;;5.80;2.30;;;;;;;16.69;59.09;99783.26;107524;1253;72643;-40
2023/09/09 06:10:09;;;;;;;6.30;2.60;;;;;;;16.75;58.09;99784.28;107682;1253;66645;-40
2023/09/09 06:12:37;;;;;;;6.00;2.60;;;;;;;16.81;58.17;99788.59;107501;1253;70807;-41
2023/09/09 06:15:06;;;;;;;5.20;2.40;;;;;;;16.88;58.05;99792.57;107557;1253;60248;-41
2023/09/09 06:17:36;;;;;;;4.00;2.10;;;;;;;16.97;58.04;99791.17;107534;1253;60332;-41
2023/09/09 06:20:05;;;;;;;6.80;2.20;;;;;;;17.00;57.88;99784.44;107674;1253;71381;-41
2023/09/09 06:22:34;;;;;;;4.90;2.30;;;;;;;17.14;57.46;99791.86;107549;1253;67583;-41
2023/09/09 06:25:03;;;;;;;7.00;2.00;;;;;;;17.17;56.73;99787.79;107710;1253;71371;-41
2023/09/09 06:27:31;;;;;;;4.60;2.10;;;;;;;17.31;56.02;99799.61;107683;1252;60292;-40
2023/09/09 06:29:58;;;;;;;5.00;2.50;;;;;;;17.40;54.99;99802.16;107507;1253;60180;-40
2023/09/09 06:32:27;;;;;;;8.30;2.10;;;;;;;17.49;54.86;99802.85;107639;1253;73055;-40
2023/09/09 06:34:55;;;;;;;6.60;2.60;;;;;;;17.58;54.84;99801.36;107529;1253;66644;-40
2023/09/09 06:37:23;;;;;;;9.10;2.40;;;;;;;17.67;54.54;99809.04;107633;1254;71369;-40
2023/09/09 06:39:51;;;;;;;7.10;2.20;;;;;;;17.73;54.28;99813.08;107632;1253;60645;-40
2023/09/09 06:42:18;;;;;;;4.00;2.20;;;;;;;17.83;54.64;99814.79;107601;1253;60332;-41
2023/09/09 06:44:49;;;;;;;4.50;2.30;;;;;;;17.93;54.52;99813.80;107523;1252;73838;-39
2023/09/09 06:47:16;;;;;;;4.80;2.10;;;;;;;18.04;54.26;99822.08;107611;1253;66275;-40
2023/09/09 06:49:44;;;;;;;6.10;2.20;;;;;;;18.15;54.30;99817.16;107499;1252;72793;-40
2023/09/09 06:52:11;;;;;;;4.10;2.20;;;;;;;18.26;53.83;99818.21;107491;1258;60209;-41
2023/09/09 06:54:39;;;;;;;3.60;2.10;;;;;;;18.35;53.44;99818.80;107661;1253;60422;-41
2023/09/09 06:57:06;;;;;;;5.00;2.10;;;;;;;18.47;53.06;99820.14;107655;1253;73948;-41
2023/09/09 06:59:35;;;;;;;5.20;2.50;;;;;;;18.59;53.16;99820.56;107536;1257;66354;-41
2023/09/09 07:02:05;;;;;;;6.60;2.50;;;;;;;18.71;52.28;99820.73;107470;1256;72685;-41
2023/09/09 07:04:34;;;;;;;6.20;2.40;;;;;;;18.81;51.73;99819.16;107587;1253;60563;-41
2023/09/09 07:07:03;;;;;;;5.00;2.30;;;;;;;18.91;51.56;99823.80;107672;1253;60365;-41
2023/09/09 07:09:40;;;;;;;4.00;2.30;;;;;;;19.01;50.94;99826.39;107500;1252;73891;-41
2023/09/09 07:12:09;;;;;;;5.40;2.20;;;;;;;19.13;50.91;99830.14;107640;1252;66593;-41
2023/09/09 07:14:37;;;;;;;3.90;2.20;;;;;;;19.25;50.90;99830.27;107636;1253;72671;-41
2023/09/09 07:17:08;;;;;;;5.50;2.40;;;;;;;19.35;50.60;99830.35;107618;1252;60392;-41
2023/09/09 07:19:35;;;;;;;5.90;1.90;;;;;;;19.47;50.08;99833.88;107646;1252;60374;-40
2023/09/09 07:22:05;;;;;;;3.40;1.90;;;;;;;19.61;49.55;99833.96;107519;1253;73895;-41
2023/09/09 07:24:33;;;;;;;6.10;2.50;;;;;;;19.70;49.31;99835.30;107551;1253;66131;-40
2023/09/09 07:27:03;;;;;;;6.80;2.00;;;;;;;19.78;48.97;99838.35;107638;1253;72677;-41
2023/09/09 07:29:31;;;;;;;7.50;2.00;;;;;;;19.88;48.43;99841.61;107489;1253;60550;-42
2023/09/09 07:31:59;;;;;;;4.50;2.30;;;;;;;19.97;48.44;99847.96;107512;1253;60528;-42
2023/09/09 07:34:26;;;;;;;5.90;2.30;;;;;;;20.06;47.83;99850.45;107518;1252;73853;-41
2023/09/09 07:36:54;;;;;;;7.50;2.00;;;;;;;20.14;47.90;99850.05;107497;1253;66747;-42
2023/09/09 07:39:21;;;;;;;3.90;2.00;;;;;;;20.25;47.68;99852.73;107630;1253;72715;-40
2023/09/09 07:41:49;;;;;;;5.40;1.90;;;;;;;20.38;47.13;99853.46;107485;1253;60480;-41
2023/09/09 07:44:17;;;;;;;5.20;2.00;;;;;;;20.50;46.79;99858.35;107636;1257;60482;-41
2023/09/09 07:46:44;;;;;;;6.20;2.30;;;;;;;20.60;46.62;99855.61;107623;1252;72950;-42
2023/09/09 07:49:13;;;;;;;5.40;2.60;;;;;;;20.68;46.27;99860.06;107519;1253;67197;-40
2023/09/09 07:51:41;;;;;;;5.20;2.10;;;;;;;20.75;46.14;99865.80;107634;1257;71952;-40
2023/09/09 07:54:08;;;;;;;5.80;1.90;;;;;;;20.80;46.34;99867.75;107624;1256;60710;-40
2023/09/09 07:56:36;;;;;;;5.10;2.10;;;;;;;20.86;46.45;99869.89;107483;1252;60419;-41
2023/09/09 07:59:04;;;;;;;5.20;2.30;;;;;;;20.91;46.05;99874.61;107495;1253;71613;-41
2023/09/09 08:01:31;;;;;;;5.30;2.00;;;;;;;20.96;45.73;99877.91;107487;1253;67652;-41
2023/09/09 08:03:59;;;;;;;4.00;2.00;;;;;;;20.99;45.25;99879.14;107580;1253;72497;-41
2023/09/09 08:06:27;;;;;;;10.50;2.20;;;;;;;20.97;44.91;99870.34;107465;1253;60505;-41
2023/09/09 08:08:54;;;;;;;6.10;2.20;;;;;;;21.08;44.46;99878.29;107634;1253;61237;-41
2023/09/09 08:11:22;;;;;;;4.70;1.80;;;;;;;21.10;43.53;99873.98;107651;1252;73827;-41
2023/09/09 08:13:49;;;;;;;3.80;1.60;;;;;;;21.05;43.67;99881.86;107480;1253;67614;-41
2023/09/09 08:16:17;;;;;;;5.30;1.90;;;;;;;21.05;43.44;99878.24;107480;1253;72687;-41
2023/09/09 08:18:45;;;;;;;3.70;1.80;;;;;;;21.12;43.31;99877.06;107470;1253;60432;-41
2023/09/09 08:21:13;;;;;;;3.00;1.70;;;;;;;21.24;43.39;99876.02;107593;1253;60556;-41
2023/09/09 08:23:40;;;;;;;3.80;2.00;;;;;;;21.40;42.86;99871.73;107596;1257;73815;-41
2023/09/09 08:26:09;;;;;;;4.80;2.00;;;;;;;21.49;42.48;99872.68;107463;1253;67590;-41
2023/09/09 08:28:37;;;;;;;4.70;2.10;;;;;;;21.55;41.88;99867.05;107460;1253;72829;-41
2023/09/09 08:31:04;;;;;;;4.40;1.60;;;;;;;21.73;41.31;99884.86;107643;1252;60348;-41
2023/09/09 08:33:32;;;;;;;2.60;1.50;;;;;;;21.85;40.51;99879.20;107490;1253;60405;-41
2023/09/09 08:36:01;;;;;;;3.10;1.60;;;;;;;21.92;40.26;99880.42;107456;1253;72532;-41
2023/09/09 08:38:30;;;;;;;3.00;1.40;;;;;;;21.99;39.55;99882.36;107483;1253;67612;-41
2023/09/09 08:41:07;;;;;;;2.60;1.60;;;;;;;22.02;40.07;99882.85;107632;1253;72674;-41
2023/09/09 08:43:40;;;;;;;7.40;1.50;;;;;;;22.12;39.73;99884.55;107586;1253;60368;-41
2023/09/09 08:46:17;;;;;;;3.40;1.90;;;;;;;22.22;39.25;99880.48;107437;1255;60333;-41
2023/09/09 08:48:44;;;;;;;3.70;1.70;;;;;;;22.32;38.87;99886.52;107316;1258;72562;-41
2023/09/09 08:51:14;;;;;;;3.10;1.50;;;;;;;22.42;38.69;99883.54;107179;1255;67061;-41
2023/09/09 08:53:41;;;;;;;2.60;1.70;;;;;;;22.52;38.46;99887.52;107285;1255;73127;-41
2023/09/09 08:56:15;;;;;;;3.30;1.50;;;;;;;22.66;38.46;99884.15;107228;1254;60825;-41
2023/09/09 08:58:43;;;;;;;6.00;1.80;;;;;;;22.82;38.30;99884.98;107458;1255;60314;-41
2023/09/09 09:01:12;;;;;;;3.20;1.40;;;;;;;22.98;37.78;99884.46;107249;1256;72617;-41
2023/09/09 09:03:40;;;;;;;2.80;1.40;;;;;;;23.10;37.21;99884.80;107326;1255;66671;-41
2023/09/09 09:06:09;;;;;;;3.20;1.70;;;;;;;23.20;36.79;99889.24;107271;1254;72840;-41
2023/09/09 09:08:37;;;;;;;3.60;1.60;;;;;;;23.28;36.72;99888.96;107345;1260;60474;-41
2023/09/09 09:11:05;;;;;;;3.60;1.50;;;;;;;23.41;36.87;99886.61;107265;1256;60339;-41
2023/09/09 09:13:33;;;;;;;3.50;1.60;;;;;;;23.54;36.04;99886.06;107175;1260;73850;-41
2023/09/09 09:16:00;;;;;;;6.40;1.80;;;;;;;23.57;35.99;99889.62;107243;1260;68393;-41
2023/09/09 09:18:28;;;;;;;3.30;1.90;;;;;;;23.57;35.89;99888.17;107226;1255;72759;-41
2023/09/09 09:21:06;;;;;;;4.50;1.70;;;;;;;23.59;36.21;99887.25;107341;1255;60348;-41
2023/09/09 09:23:41;;;;;;;2.50;1.70;;;;;;;23.74;36.86;99895.00;107262;1255;60468;-41
2023/09/09 09:26:25;;;;;;;2.60;1.30;;;;;;;23.95;36.02;99894.72;107284;1255;74147;-41
2023/09/09 09:28:53;;;;;;;6.40;1.70;;;;;;;24.13;35.04;99892.70;107442;1255;68587;-41
2023/09/09 09:31:22;;;;;;;6.40;1.50;;;;;;;24.19;33.45;99896.11;107290;1256;72696;-42
2023/09/09 09:33:51;;;;;;;2.90;1.50;;;;;;;24.08;33.92;99904.53;107259;1255;60502;-41
2023/09/09 09:36:22;;;;;;;4.40;1.30;;;;;;;23.95;34.13;99907.98;107276;1255;60186;-41
2023/09/09 09:38:50;;;;;;;2.50;1.60;;;;;;;23.87;34.28;99900.62;107298;1255;73806;-41
2023/09/09 09:41:18;;;;;;;3.10;1.60;;;;;;;23.84;34.36;99903.07;107217;1259;67576;-41
2023/09/09 09:43:46;;;;;;;2.50;1.50;;;;;;;23.85;34.31;99905.88;107249;1256;72670;-41
2023/09/09 09:46:20;;;;;;;4.00;1.60;;;;;;;23.90;34.17;99904.89;107447;1254;60547;-42
2023/09/09 09:48:48;;;;;;;5.80;1.70;;;;;;;23.95;34.03;99909.41;107442;1253;60454;-42
2023/09/09 09:51:16;;;;;;;3.00;1.70;;;;;;;23.99;33.48;99909.79;107450;1253;74327;-41
2023/09/09 09:53:51;;;;;;;2.90;1.80;;;;;;;23.92;33.56;99911.17;107425;1253;67548;-41
2023/09/09 09:56:19;;;;;;;3.10;1.50;;;;;;;23.89;34.01;99912.83;107474;1254;71373;-41
2023/09/09 09:58:48;;;;;;;6.00;1.90;;;;;;;23.99;34.41;99913.49;107456;1258;60247;-41
2023/09/09 10:01:16;;;;;;;5.20;1.70;;;;;;;24.14;33.62;99914.30;107540;1253;60381;-42
2023/09/09 10:03:51;;;;;;;3.90;1.60;;;;;;;24.24;33.58;99916.08;107432;1258;73845;-41
2023/09/09 10:06:25;;;;;;;4.30;1.50;;;;;;;24.31;33.69;99920.10;107436;1253;67645;-41
2023/09/09 10:08:57;;;;;;;2.70;1.60;;;;;;;24.41;33.92;99916.39;107461;1253;71455;-41
2023/09/09 10:11:26;;;;;;;2.20;1.70;;;;;;;24.56;33.82;99918.25;107528;1253;60394;-41
2023/09/09 10:14:01;;;;;;;6.00;1.70;;;;;;;24.72;33.16;99922.32;107487;1253;60428;-42
2023/09/09 10:16:29;;;;;;;4.30;1.60;;;;;;;24.90;32.55;99920.02;107441;1254;72610;-43
2023/09/09 10:18:57;;;;;;;2.30;1.40;;;;;;;25.08;32.40;99919.48;107451;1258;67663;-42
2023/09/09 10:21:24;;;;;;;3.70;1.50;;;;;;;25.24;31.91;99913.82;107440;1253;72710;-40
2023/09/09 10:24:09;;;;;;;4.40;1.70;;;;;;;25.41;31.64;99914.68;107434;1254;60400;-42
2023/09/09 10:26:37;;;;;;;3.10;1.40;;;;;;;25.53;31.40;99913.73;107460;1253;60359;-41
2023/09/09 10:29:04;;;;;;;5.90;1.50;;;;;;;25.63;31.26;99917.96;107412;1253;73830;-42
2023/09/09 10:31:32;;;;;;;3.50;1.80;;;;;;;25.77;31.24;99914.28;107430;1253;67894;-41
2023/09/09 10:34:00;;;;;;;2.30;1.30;;;;;;;25.94;30.61;99915.05;107367;1253;71211;-41
2023/09/09 10:36:31;;;;;;;7.80;1.90;;;;;;;26.12;30.26;99915.91;107310;1253;60105;-41
2023/09/09 10:39:03;;;;;;;3.00;1.50;;;;;;;26.35;29.79;99915.17;107301;1253;60106;-41
2023/09/09 10:41:30;;;;;;;3.60;1.70;;;;;;;26.62;30.03;99922.98;107445;1253;73841;-42
2023/09/09 10:43:59;;;;;;;2.30;1.70;;;;;;;26.90;29.80;99922.98;107462;1253;67569;-42
2023/09/09 10:46:34;;;;;;;6.00;1.80;;;;;;;27.13;29.70;99926.77;107446;1253;72808;-41
2023/09/09 10:49:03;;;;;;;4.40;1.60;;;;;;;27.35;29.50;99921.92;107434;1253;60460;-42
2023/09/09 10:51:49;;;;;;;3.80;1.70;;;;;;;27.45;28.96;99916.01;107556;1253;60336;-42
2023/09/09 10:54:20;;;;;;;4.20;1.60;;;;;;;27.60;29.07;99918.88;107501;1253;73866;-42
2023/09/09 10:56:48;;;;;;;3.80;1.70;;;;;;;27.69;28.25;99923.72;107481;1253;66295;-42
2023/09/09 10:59:20;;;;;;;3.00;1.50;;;;;;;27.73;27.50;99923.95;107324;1253;215863;-42
2023/09/09 11:03:25;;;;;;;2.60;1.60;;;;;;;27.91;27.33;99925.03;104350;1289;601142;-42
2023/09/09 11:05:59;;;;;;;3.90;1.90;;;;;;;28.16;27.35;99924.56;106669;1268;60042;-42
2023/09/09 11:08:37;;;;;;;3.50;1.40;;;;;;;28.42;26.94;99919.54;106718;1263;59757;-42
2023/09/09 11:11:17;;;;;;;2.90;1.80;;;;;;;28.72;27.29;99923.05;106707;1264;71934;-42
2023/09/09 11:13:57;;;;;;;3.10;1.80;;;;;;;29.04;26.93;99922.45;106723;1265;67636;-42
2023/09/09 11:16:32;;;;;;;3.10;1.60;;;;;;;29.26;26.46;99921.98;106636;1263;154945;-42
2023/09/09 11:19:10;;;;;;;4.00;1.60;;;;;;;29.47;25.56;99916.98;106910;1263;60261;-42
2023/09/09 11:21:40;;;;;;;2.90;1.30;;;;;;;29.69;24.76;99922.02;106866;1262;60181;-42
2023/09/09 11:24:08;;;;;;;3.00;1.60;;;;;;;29.93;24.27;99918.98;106907;1262;72284;-42
2023/09/09 11:26:40;;;;;;;5.80;1.70;;;;;;;30.10;24.28;99918.91;106886;1262;67571;-42
2023/09/09 11:29:07;;;;;;;3.50;1.70;;;;;;;30.17;23.97;99918.84;106911;1262;71462;-42
2023/09/09 11:31:51;;;;;;;2.00;1.30;;;;;;;30.24;24.05;99920.95;106873;1263;59532;-42
2023/09/09 11:34:31;;;;;;;3.00;1.70;;;;;;;30.45;24.04;99917.23;106930;1263;60042;-42